Metar z połowy godziny Komunikat METAR ze strony awiacja.imgw.pl Metar G30 EPBY METAR EPBY 241930Z 19006KT CAVOK 16/07 Q1011 =